sensor_id;sensor_type;location;lat;lon;timestamp;temperature;humidity
20041;DHT22;10181;48.072;9.884;2023-06-19T00:02:16;16.60;99.90
20041;DHT22;10181;48.072;9.884;2023-06-19T00:04:42;16.50;99.90
20041;DHT22;10181;48.072;9.884;2023-06-19T00:07:07;16.30;99.90
20041;DHT22;10181;48.072;9.884;2023-06-19T00:09:33;16.20;99.90
20041;DHT22;10181;48.072;9.884;2023-06-19T00:11:59;16.10;99.90
20041;DHT22;10181;48.072;9.884;2023-06-19T00:14:25;16.00;99.90
20041;DHT22;10181;48.072;9.884;2023-06-19T00:16:51;16.00;99.90
20041;DHT22;10181;48.072;9.884;2023-06-19T00:19:17;15.90;99.90
20041;DHT22;10181;48.072;9.884;2023-06-19T00:21:43;15.90;99.90
20041;DHT22;10181;48.072;9.884;2023-06-19T00:24:09;15.90;99.90
20041;DHT22;10181;48.072;9.884;2023-06-19T00:26:35;15.90;99.90
20041;DHT22;10181;48.072;9.884;2023-06-19T00:29:01;15.90;99.90
20041;DHT22;10181;48.072;9.884;2023-06-19T00:31:27;15.90;99.90
20041;DHT22;10181;48.072;9.884;2023-06-19T00:33:53;16.00;99.90
20041;DHT22;10181;48.072;9.884;2023-06-19T00:36:18;16.00;99.90
20041;DHT22;10181;48.072;9.884;2023-06-19T00:38:46;16.00;99.90
20041;DHT22;10181;48.072;9.884;2023-06-19T00:41:11;16.00;99.90
20041;DHT22;10181;48.072;9.884;2023-06-19T00:43:37;16.00;99.90
20041;DHT22;10181;48.072;9.884;2023-06-19T00:46:03;16.00;99.90
20041;DHT22;10181;48.072;9.884;2023-06-19T00:48:30;16.00;99.90
20041;DHT22;10181;48.072;9.884;2023-06-19T00:50:57;15.90;99.90
20041;DHT22;10181;48.072;9.884;2023-06-19T00:53:24;15.90;99.90
20041;DHT22;10181;48.072;9.884;2023-06-19T00:55:51;15.90;99.90
20041;DHT22;10181;48.072;9.884;2023-06-19T00:58:19;16.00;99.90
20041;DHT22;10181;48.072;9.884;2023-06-19T01:00:44;16.00;99.90
20041;DHT22;10181;48.072;9.884;2023-06-19T01:03:10;16.10;99.90
20041;DHT22;10181;48.072;9.884;2023-06-19T01:05:35;16.10;99.90
20041;DHT22;10181;48.072;9.884;2023-06-19T01:10:54;16.20;99.90
20041;DHT22;10181;48.072;9.884;2023-06-19T01:13:57;16.30;99.90
20041;DHT22;10181;48.072;9.884;2023-06-19T01:16:26;16.30;99.90
20041;DHT22;10181;48.072;9.884;2023-06-19T01:18:53;16.40;99.90
20041;DHT22;10181;48.072;9.884;2023-06-19T01:21:19;16.40;99.90
20041;DHT22;10181;48.072;9.884;2023-06-19T01:23:45;16.40;99.90
20041;DHT22;10181;48.072;9.884;2023-06-19T01:26:12;16.40;99.90
20041;DHT22;10181;48.072;9.884;2023-06-19T01:28:40;16.40;99.90
20041;DHT22;10181;48.072;9.884;2023-06-19T01:31:17;16.50;99.90
20041;DHT22;10181;48.072;9.884;2023-06-19T01:33:46;16.50;99.90
20041;DHT22;10181;48.072;9.884;2023-06-19T01:36:13;16.60;99.90
20041;DHT22;10181;48.072;9.884;2023-06-19T01:38:41;16.60;99.90
20041;DHT22;10181;48.072;9.884;2023-06-19T01:41:09;16.70;99.90
20041;DHT22;10181;48.072;9.884;2023-06-19T01:43:37;16.70;99.90
20041;DHT22;10181;48.072;9.884;2023-06-19T01:46:03;16.70;99.90
20041;DHT22;10181;48.072;9.884;2023-06-19T01:48:29;16.70;99.90
20041;DHT22;10181;48.072;9.884;2023-06-19T01:50:55;16.70;99.90
20041;DHT22;10181;48.072;9.884;2023-06-19T01:53:20;16.70;99.90
20041;DHT22;10181;48.072;9.884;2023-06-19T01:55:46;16.70;99.90
20041;DHT22;10181;48.072;9.884;2023-06-19T01:58:12;16.70;99.90
20041;DHT22;10181;48.072;9.884;2023-06-19T02:00:37;16.70;99.90
20041;DHT22;10181;48.072;9.884;2023-06-19T02:03:04;16.80;99.90
20041;DHT22;10181;48.072;9.884;2023-06-19T02:05:33;17.00;99.90
20041;DHT22;10181;48.072;9.884;2023-06-19T02:07:59;17.20;99.90
20041;DHT22;10181;48.072;9.884;2023-06-19T02:10:25;17.60;99.90
20041;DHT22;10181;48.072;9.884;2023-06-19T02:12:50;17.90;99.90
20041;DHT22;10181;48.072;9.884;2023-06-19T02:15:16;18.10;99.90
20041;DHT22;10181;48.072;9.884;2023-06-19T02:17:42;18.30;99.90
20041;DHT22;10181;48.072;9.884;2023-06-19T02:20:08;18.50;99.90
20041;DHT22;10181;48.072;9.884;2023-06-19T02:22:39;18.80;99.90
20041;DHT22;10181;48.072;9.884;2023-06-19T02:25:05;19.00;99.90
20041;DHT22;10181;48.072;9.884;2023-06-19T02:27:31;19.10;99.90
20041;DHT22;10181;48.072;9.884;2023-06-19T02:29:57;19.20;99.90
20041;DHT22;10181;48.072;9.884;2023-06-19T02:32:23;19.30;99.90
20041;DHT22;10181;48.072;9.884;2023-06-19T02:34:48;19.30;99.90
20041;DHT22;10181;48.072;9.884;2023-06-19T02:37:14;19.40;99.90
20041;DHT22;10181;48.072;9.884;2023-06-19T02:39:40;19.50;99.90
20041;DHT22;10181;48.072;9.884;2023-06-19T02:42:06;19.40;99.90
20041;DHT22;10181;48.072;9.884;2023-06-19T02:44:31;19.50;99.90
20041;DHT22;10181;48.072;9.884;2023-06-19T02:46:57;19.50;99.90
20041;DHT22;10181;48.072;9.884;2023-06-19T02:49:23;19.60;99.90
20041;DHT22;10181;48.072;9.884;2023-06-19T02:51:48;19.60;99.90
20041;DHT22;10181;48.072;9.884;2023-06-19T02:54:14;19.60;99.90
20041;DHT22;10181;48.072;9.884;2023-06-19T02:56:40;19.50;99.90
20041;DHT22;10181;48.072;9.884;2023-06-19T02:59:05;19.40;99.90
20041;DHT22;10181;48.072;9.884;2023-06-19T03:01:31;19.40;99.90
20041;DHT22;10181;48.072;9.884;2023-06-19T03:03:57;19.30;99.90
20041;DHT22;10181;48.072;9.884;2023-06-19T03:06:22;19.20;99.90
20041;DHT22;10181;48.072;9.884;2023-06-19T03:08:48;19.00;99.90
20041;DHT22;10181;48.072;9.884;2023-06-19T03:11:15;18.90;99.90
20041;DHT22;10181;48.072;9.884;2023-06-19T03:13:51;18.90;99.90
20041;DHT22;10181;48.072;9.884;2023-06-19T03:16:17;18.80;99.90
20041;DHT22;10181;48.072;9.884;2023-06-19T03:18:43;18.70;99.90
20041;DHT22;10181;48.072;9.884;2023-06-19T03:21:11;18.60;99.90
20041;DHT22;10181;48.072;9.884;2023-06-19T03:23:36;18.60;99.90
20041;DHT22;10181;48.072;9.884;2023-06-19T03:26:02;18.60;99.90
20041;DHT22;10181;48.072;9.884;2023-06-19T03:28:28;18.60;99.90
20041;DHT22;10181;48.072;9.884;2023-06-19T03:30:54;18.50;99.90
20041;DHT22;10181;48.072;9.884;2023-06-19T03:33:20;18.50;99.90
20041;DHT22;10181;48.072;9.884;2023-06-19T03:35:45;18.50;99.90
20041;DHT22;10181;48.072;9.884;2023-06-19T03:38:11;18.60;99.90
20041;DHT22;10181;48.072;9.884;2023-06-19T03:40:37;18.60;99.90
20041;DHT22;10181;48.072;9.884;2023-06-19T03:43:02;18.60;99.90
20041;DHT22;10181;48.072;9.884;2023-06-19T03:45:28;18.60;99.90
20041;DHT22;10181;48.072;9.884;2023-06-19T03:47:53;18.50;99.90
20041;DHT22;10181;48.072;9.884;2023-06-19T03:50:19;18.40;99.90
20041;DHT22;10181;48.072;9.884;2023-06-19T03:52:45;18.40;99.90
20041;DHT22;10181;48.072;9.884;2023-06-19T03:55:10;18.40;99.90
20041;DHT22;10181;48.072;9.884;2023-06-19T03:57:36;18.50;99.90
20041;DHT22;10181;48.072;9.884;2023-06-19T04:00:02;18.40;99.90
20041;DHT22;10181;48.072;9.884;2023-06-19T04:02:32;18.40;99.90
20041;DHT22;10181;48.072;9.884;2023-06-19T04:04:58;18.50;99.90
20041;DHT22;10181;48.072;9.884;2023-06-19T04:18:53;18.90;99.90
20041;DHT22;10181;48.072;9.884;2023-06-19T04:21:19;18.70;99.90
20041;DHT22;10181;48.072;9.884;2023-06-19T04:23:45;18.60;99.90
20041;DHT22;10181;48.072;9.884;2023-06-19T04:26:10;18.70;99.90
20041;DHT22;10181;48.072;9.884;2023-06-19T04:28:36;18.70;99.90
20041;DHT22;10181;48.072;9.884;2023-06-19T04:31:01;18.70;99.90
20041;DHT22;10181;48.072;9.884;2023-06-19T04:33:28;18.70;99.90
20041;DHT22;10181;48.072;9.884;2023-06-19T04:35:55;18.70;99.90
20041;DHT22;10181;48.072;9.884;2023-06-19T04:38:20;18.70;99.90
20041;DHT22;10181;48.072;9.884;2023-06-19T04:40:51;18.70;99.90
20041;DHT22;10181;48.072;9.884;2023-06-19T04:43:18;18.80;99.90
20041;DHT22;10181;48.072;9.884;2023-06-19T04:45:43;18.80;99.90
20041;DHT22;10181;48.072;9.884;2023-06-19T04:48:09;18.80;99.90
20041;DHT22;10181;48.072;9.884;2023-06-19T04:50:35;18.80;99.90
20041;DHT22;10181;48.072;9.884;2023-06-19T04:53:01;18.90;99.90
20041;DHT22;10181;48.072;9.884;2023-06-19T04:55:27;18.90;99.90
20041;DHT22;10181;48.072;9.884;2023-06-19T04:57:52;18.90;99.90
20041;DHT22;10181;48.072;9.884;2023-06-19T05:00:18;18.90;99.90
20041;DHT22;10181;48.072;9.884;2023-06-19T05:02:45;19.00;99.90
20041;DHT22;10181;48.072;9.884;2023-06-19T05:05:13;19.00;99.90
20041;DHT22;10181;48.072;9.884;2023-06-19T05:07:39;19.10;99.90
20041;DHT22;10181;48.072;9.884;2023-06-19T05:10:05;19.10;99.90
20041;DHT22;10181;48.072;9.884;2023-06-19T05:12:30;19.10;99.90
20041;DHT22;10181;48.072;9.884;2023-06-19T05:14:56;19.10;99.90
20041;DHT22;10181;48.072;9.884;2023-06-19T05:17:22;19.10;99.90
20041;DHT22;10181;48.072;9.884;2023-06-19T05:19:48;19.10;99.90
20041;DHT22;10181;48.072;9.884;2023-06-19T05:22:13;19.10;99.90
20041;DHT22;10181;48.072;9.884;2023-06-19T05:24:39;19.20;99.90
20041;DHT22;10181;48.072;9.884;2023-06-19T05:27:05;19.20;99.90
20041;DHT22;10181;48.072;9.884;2023-06-19T05:29:32;19.30;99.90
20041;DHT22;10181;48.072;9.884;2023-06-19T05:31:57;19.30;99.90
20041;DHT22;10181;48.072;9.884;2023-06-19T05:34:23;19.40;99.90
20041;DHT22;10181;48.072;9.884;2023-06-19T05:36:49;19.50;99.90
20041;DHT22;10181;48.072;9.884;2023-06-19T05:39:14;19.50;99.90
20041;DHT22;10181;48.072;9.884;2023-06-19T05:41:40;19.70;99.90
20041;DHT22;10181;48.072;9.884;2023-06-19T05:44:06;19.70;99.90
20041;DHT22;10181;48.072;9.884;2023-06-19T05:46:31;19.80;99.90
20041;DHT22;10181;48.072;9.884;2023-06-19T05:48:57;19.90;99.90
20041;DHT22;10181;48.072;9.884;2023-06-19T05:51:23;20.00;99.90
20041;DHT22;10181;48.072;9.884;2023-06-19T05:53:48;20.00;99.90
20041;DHT22;10181;48.072;9.884;2023-06-19T05:56:17;20.00;99.90
20041;DHT22;10181;48.072;9.884;2023-06-19T05:58:43;20.10;99.90
20041;DHT22;10181;48.072;9.884;2023-06-19T06:01:09;20.10;99.90
20041;DHT22;10181;48.072;9.884;2023-06-19T06:03:35;20.10;99.90
20041;DHT22;10181;48.072;9.884;2023-06-19T06:06:01;20.10;99.90
20041;DHT22;10181;48.072;9.884;2023-06-19T06:08:30;20.20;99.90
20041;DHT22;10181;48.072;9.884;2023-06-19T06:10:56;20.20;99.90
20041;DHT22;10181;48.072;9.884;2023-06-19T06:13:21;20.20;99.90
20041;DHT22;10181;48.072;9.884;2023-06-19T06:15:47;20.20;99.90
20041;DHT22;10181;48.072;9.884;2023-06-19T06:18:13;20.20;99.90
20041;DHT22;10181;48.072;9.884;2023-06-19T06:20:38;20.10;99.90
20041;DHT22;10181;48.072;9.884;2023-06-19T06:23:04;20.10;99.90
20041;DHT22;10181;48.072;9.884;2023-06-19T06:25:30;20.20;99.90
20041;DHT22;10181;48.072;9.884;2023-06-19T06:27:55;20.20;99.90
20041;DHT22;10181;48.072;9.884;2023-06-19T06:30:21;20.10;99.90
20041;DHT22;10181;48.072;9.884;2023-06-19T06:32:48;20.10;99.90
20041;DHT22;10181;48.072;9.884;2023-06-19T06:35:13;20.10;99.90
20041;DHT22;10181;48.072;9.884;2023-06-19T06:37:39;20.10;99.90
20041;DHT22;10181;48.072;9.884;2023-06-19T06:40:06;20.00;99.90
20041;DHT22;10181;48.072;9.884;2023-06-19T06:42:35;20.00;99.90
20041;DHT22;10181;48.072;9.884;2023-06-19T06:45:00;20.00;99.90
20041;DHT22;10181;48.072;9.884;2023-06-19T06:47:26;19.90;99.90
20041;DHT22;10181;48.072;9.884;2023-06-19T06:49:51;19.90;99.90
20041;DHT22;10181;48.072;9.884;2023-06-19T06:52:17;19.90;99.90
20041;DHT22;10181;48.072;9.884;2023-06-19T06:54:43;19.90;99.90
20041;DHT22;10181;48.072;9.884;2023-06-19T06:57:09;19.90;99.90
20041;DHT22;10181;48.072;9.884;2023-06-19T06:59:34;19.90;99.90
20041;DHT22;10181;48.072;9.884;2023-06-19T07:02:00;20.00;99.90
20041;DHT22;10181;48.072;9.884;2023-06-19T07:04:26;20.10;99.90
20041;DHT22;10181;48.072;9.884;2023-06-19T07:06:51;20.10;99.90
20041;DHT22;10181;48.072;9.884;2023-06-19T07:09:18;20.10;99.90
20041;DHT22;10181;48.072;9.884;2023-06-19T07:11:43;20.10;99.90
20041;DHT22;10181;48.072;9.884;2023-06-19T07:14:09;20.10;99.90
20041;DHT22;10181;48.072;9.884;2023-06-19T07:16:35;20.10;99.90
20041;DHT22;10181;48.072;9.884;2023-06-19T07:19:00;20.10;99.90
20041;DHT22;10181;48.072;9.884;2023-06-19T07:21:27;20.10;99.90
20041;DHT22;10181;48.072;9.884;2023-06-19T07:23:53;20.00;99.90
20041;DHT22;10181;48.072;9.884;2023-06-19T07:26:20;20.00;99.90
20041;DHT22;10181;48.072;9.884;2023-06-19T07:28:45;19.90;99.90
20041;DHT22;10181;48.072;9.884;2023-06-19T07:31:11;19.90;99.90
20041;DHT22;10181;48.072;9.884;2023-06-19T07:33:36;19.70;99.90
20041;DHT22;10181;48.072;9.884;2023-06-19T07:36:02;19.70;99.90
20041;DHT22;10181;48.072;9.884;2023-06-19T07:38:28;19.60;99.90
20041;DHT22;10181;48.072;9.884;2023-06-19T07:40:54;19.50;99.90
20041;DHT22;10181;48.072;9.884;2023-06-19T07:43:19;19.50;99.90
20041;DHT22;10181;48.072;9.884;2023-06-19T07:45:48;19.40;99.90
20041;DHT22;10181;48.072;9.884;2023-06-19T07:48:13;19.40;99.90
20041;DHT22;10181;48.072;9.884;2023-06-19T07:50:39;19.40;99.90
20041;DHT22;10181;48.072;9.884;2023-06-19T07:53:04;19.40;99.90
20041;DHT22;10181;48.072;9.884;2023-06-19T07:55:30;19.50;99.90
20041;DHT22;10181;48.072;9.884;2023-06-19T07:57:56;19.50;99.90
20041;DHT22;10181;48.072;9.884;2023-06-19T08:00:24;19.50;99.90
20041;DHT22;10181;48.072;9.884;2023-06-19T08:02:50;19.50;99.90
20041;DHT22;10181;48.072;9.884;2023-06-19T08:05:16;19.40;99.90
20041;DHT22;10181;48.072;9.884;2023-06-19T08:07:41;19.40;99.90
20041;DHT22;10181;48.072;9.884;2023-06-19T08:10:07;19.40;99.90
20041;DHT22;10181;48.072;9.884;2023-06-19T08:12:34;19.40;99.90
20041;DHT22;10181;48.072;9.884;2023-06-19T08:14:59;19.40;99.90
20041;DHT22;10181;48.072;9.884;2023-06-19T08:17:25;19.40;99.90
20041;DHT22;10181;48.072;9.884;2023-06-19T08:19:51;19.50;99.90
20041;DHT22;10181;48.072;9.884;2023-06-19T08:22:16;19.60;99.90
20041;DHT22;10181;48.072;9.884;2023-06-19T08:24:42;19.70;99.90
20041;DHT22;10181;48.072;9.884;2023-06-19T08:27:08;19.70;99.90
20041;DHT22;10181;48.072;9.884;2023-06-19T08:29:33;19.80;99.90
20041;DHT22;10181;48.072;9.884;2023-06-19T08:32:00;19.90;99.90
20041;DHT22;10181;48.072;9.884;2023-06-19T08:34:27;20.00;99.90
20041;DHT22;10181;48.072;9.884;2023-06-19T08:36:53;20.10;99.90
20041;DHT22;10181;48.072;9.884;2023-06-19T08:39:18;20.10;99.90
20041;DHT22;10181;48.072;9.884;2023-06-19T08:41:47;20.20;99.90
20041;DHT22;10181;48.072;9.884;2023-06-19T08:44:13;20.30;99.90
20041;DHT22;10181;48.072;9.884;2023-06-19T08:46:38;20.30;99.90
20041;DHT22;10181;48.072;9.884;2023-06-19T08:49:05;20.40;99.90
20041;DHT22;10181;48.072;9.884;2023-06-19T08:51:35;20.60;99.90
20041;DHT22;10181;48.072;9.884;2023-06-19T08:54:03;20.70;99.90
20041;DHT22;10181;48.072;9.884;2023-06-19T08:56:31;20.80;99.90
20041;DHT22;10181;48.072;9.884;2023-06-19T08:59:15;20.90;99.90
20041;DHT22;10181;48.072;9.884;2023-06-19T09:01:52;21.00;99.90
20041;DHT22;10181;48.072;9.884;2023-06-19T09:04:28;21.00;99.90
20041;DHT22;10181;48.072;9.884;2023-06-19T09:06:55;21.00;99.90
20041;DHT22;10181;48.072;9.884;2023-06-19T09:09:22;21.10;99.90
20041;DHT22;10181;48.072;9.884;2023-06-19T09:12:08;21.20;99.90
20041;DHT22;10181;48.072;9.884;2023-06-19T09:14:42;21.30;99.90
20041;DHT22;10181;48.072;9.884;2023-06-19T09:17:16;21.40;99.90
20041;DHT22;10181;48.072;9.884;2023-06-19T09:19:53;21.30;99.90
20041;DHT22;10181;48.072;9.884;2023-06-19T09:22:21;21.50;99.90
20041;DHT22;10181;48.072;9.884;2023-06-19T09:24:48;21.70;99.90
20041;DHT22;10181;48.072;9.884;2023-06-19T09:27:15;21.80;99.90
20041;DHT22;10181;48.072;9.884;2023-06-19T09:29:45;22.00;99.90
20041;DHT22;10181;48.072;9.884;2023-06-19T09:32:21;22.10;99.90
20041;DHT22;10181;48.072;9.884;2023-06-19T09:34:48;22.20;99.90
20041;DHT22;10181;48.072;9.884;2023-06-19T09:37:15;22.30;99.90
20041;DHT22;10181;48.072;9.884;2023-06-19T09:39:41;22.50;99.90
20041;DHT22;10181;48.072;9.884;2023-06-19T09:42:08;22.60;99.90
20041;DHT22;10181;48.072;9.884;2023-06-19T09:44:40;22.70;99.90
20041;DHT22;10181;48.072;9.884;2023-06-19T09:47:23;22.70;99.90
20041;DHT22;10181;48.072;9.884;2023-06-19T09:49:54;22.80;99.90
20041;DHT22;10181;48.072;9.884;2023-06-19T09:52:21;22.90;99.90
20041;DHT22;10181;48.072;9.884;2023-06-19T09:54:54;23.10;99.90
20041;DHT22;10181;48.072;9.884;2023-06-19T09:57:20;23.30;99.90
20041;DHT22;10181;48.072;9.884;2023-06-19T09:59:49;23.40;99.90
20041;DHT22;10181;48.072;9.884;2023-06-19T10:02:17;23.50;99.90
20041;DHT22;10181;48.072;9.884;2023-06-19T10:04:49;23.60;99.90
20041;DHT22;10181;48.072;9.884;2023-06-19T10:07:26;23.70;99.90
20041;DHT22;10181;48.072;9.884;2023-06-19T10:10:10;23.70;99.90
20041;DHT22;10181;48.072;9.884;2023-06-19T10:12:42;23.70;99.90
20041;DHT22;10181;48.072;9.884;2023-06-19T10:15:28;23.70;99.90
20041;DHT22;10181;48.072;9.884;2023-06-19T10:18:02;23.70;99.90
20041;DHT22;10181;48.072;9.884;2023-06-19T10:20:29;23.80;99.90
20041;DHT22;10181;48.072;9.884;2023-06-19T10:23:03;24.00;99.90
20041;DHT22;10181;48.072;9.884;2023-06-19T10:25:31;24.10;99.90
20041;DHT22;10181;48.072;9.884;2023-06-19T10:27:58;24.10;99.90
20041;DHT22;10181;48.072;9.884;2023-06-19T10:30:24;24.20;99.90
20041;DHT22;10181;48.072;9.884;2023-06-19T10:32:50;24.30;99.90
20041;DHT22;10181;48.072;9.884;2023-06-19T10:35:17;24.50;99.90
20041;DHT22;10181;48.072;9.884;2023-06-19T10:37:43;24.60;99.90
20041;DHT22;10181;48.072;9.884;2023-06-19T10:40:09;24.70;99.90
20041;DHT22;10181;48.072;9.884;2023-06-19T10:42:45;24.90;99.90
20041;DHT22;10181;48.072;9.884;2023-06-19T10:45:12;25.00;99.90
20041;DHT22;10181;48.072;9.884;2023-06-19T10:47:39;24.90;99.90
20041;DHT22;10181;48.072;9.884;2023-06-19T10:52:40;24.60;99.90
20041;DHT22;10181;48.072;9.884;2023-06-19T10:55:06;24.60;99.90
20041;DHT22;10181;48.072;9.884;2023-06-19T10:57:32;24.70;99.90
20041;DHT22;10181;48.072;9.884;2023-06-19T10:59:58;24.70;99.90
20041;DHT22;10181;48.072;9.884;2023-06-19T11:02:25;24.90;99.90
20041;DHT22;10181;48.072;9.884;2023-06-19T11:04:57;25.00;99.90
20041;DHT22;10181;48.072;9.884;2023-06-19T11:07:22;25.10;99.90
20041;DHT22;10181;48.072;9.884;2023-06-19T11:09:51;25.10;99.90
20041;DHT22;10181;48.072;9.884;2023-06-19T11:12:20;25.30;99.90
20041;DHT22;10181;48.072;9.884;2023-06-19T11:14:50;25.50;99.90
20041;DHT22;10181;48.072;9.884;2023-06-19T11:17:17;25.70;99.90
20041;DHT22;10181;48.072;9.884;2023-06-19T11:19:46;25.70;99.90
20041;DHT22;10181;48.072;9.884;2023-06-19T11:22:11;25.70;99.90
20041;DHT22;10181;48.072;9.884;2023-06-19T11:24:42;25.80;99.90
20041;DHT22;10181;48.072;9.884;2023-06-19T11:27:16;26.00;99.90
20041;DHT22;10181;48.072;9.884;2023-06-19T11:29:42;26.10;99.90
20041;DHT22;10181;48.072;9.884;2023-06-19T11:32:12;26.10;99.90
20041;DHT22;10181;48.072;9.884;2023-06-19T11:34:39;26.10;99.90
20041;DHT22;10181;48.072;9.884;2023-06-19T11:37:15;26.10;99.90
20041;DHT22;10181;48.072;9.884;2023-06-19T11:39:44;26.20;99.90
20041;DHT22;10181;48.072;9.884;2023-06-19T11:42:09;26.30;99.90
20041;DHT22;10181;48.072;9.884;2023-06-19T11:44:35;26.40;99.90
20041;DHT22;10181;48.072;9.884;2023-06-19T11:47:01;26.50;99.90
20041;DHT22;10181;48.072;9.884;2023-06-19T11:49:35;26.50;99.90
20041;DHT22;10181;48.072;9.884;2023-06-19T11:52:00;26.50;99.90
20041;DHT22;10181;48.072;9.884;2023-06-19T11:54:26;26.50;99.90
20041;DHT22;10181;48.072;9.884;2023-06-19T11:56:52;26.50;99.90
20041;DHT22;10181;48.072;9.884;2023-06-19T11:59:17;26.50;99.90
20041;DHT22;10181;48.072;9.884;2023-06-19T12:01:43;26.50;99.90
20041;DHT22;10181;48.072;9.884;2023-06-19T12:04:09;26.70;99.90
20041;DHT22;10181;48.072;9.884;2023-06-19T12:06:34;26.70;99.90
20041;DHT22;10181;48.072;9.884;2023-06-19T12:09:03;26.70;99.90
20041;DHT22;10181;48.072;9.884;2023-06-19T12:11:30;26.80;99.90
20041;DHT22;10181;48.072;9.884;2023-06-19T12:13:55;26.90;99.90
20041;DHT22;10181;48.072;9.884;2023-06-19T12:16:23;27.10;97.10
20041;DHT22;10181;48.072;9.884;2023-06-19T12:18:48;27.10;98.30
20041;DHT22;10181;48.072;9.884;2023-06-19T12:21:14;27.20;98.60
20041;DHT22;10181;48.072;9.884;2023-06-19T12:23:40;27.30;96.10
20041;DHT22;10181;48.072;9.884;2023-06-19T12:26:05;27.30;95.20
20041;DHT22;10181;48.072;9.884;2023-06-19T12:28:31;27.50;95.30
20041;DHT22;10181;48.072;9.884;2023-06-19T12:30:57;27.60;93.50
20041;DHT22;10181;48.072;9.884;2023-06-19T12:33:23;27.80;93.70
20041;DHT22;10181;48.072;9.884;2023-06-19T12:35:49;28.00;91.40
20041;DHT22;10181;48.072;9.884;2023-06-19T12:38:15;28.10;92.80
20041;DHT22;10181;48.072;9.884;2023-06-19T12:40:41;28.10;93.10
20041;DHT22;10181;48.072;9.884;2023-06-19T12:43:06;28.20;93.00
20041;DHT22;10181;48.072;9.884;2023-06-19T12:45:32;28.30;92.90
20041;DHT22;10181;48.072;9.884;2023-06-19T12:47:58;28.30;92.20
20041;DHT22;10181;48.072;9.884;2023-06-19T12:50:24;28.30;91.40
20041;DHT22;10181;48.072;9.884;2023-06-19T12:52:50;28.20;90.20
20041;DHT22;10181;48.072;9.884;2023-06-19T12:55:16;28.10;90.40
20041;DHT22;10181;48.072;9.884;2023-06-19T12:57:42;27.90;90.50
20041;DHT22;10181;48.072;9.884;2023-06-19T13:00:10;28.00;91.30
20041;DHT22;10181;48.072;9.884;2023-06-19T13:02:37;28.10;91.30
20041;DHT22;10181;48.072;9.884;2023-06-19T13:05:03;28.10;91.20
20041;DHT22;10181;48.072;9.884;2023-06-19T13:07:29;28.20;91.20
20041;DHT22;10181;48.072;9.884;2023-06-19T13:09:54;28.20;90.10
20041;DHT22;10181;48.072;9.884;2023-06-19T13:12:22;28.30;89.30
20041;DHT22;10181;48.072;9.884;2023-06-19T13:14:48;28.30;92.00
20041;DHT22;10181;48.072;9.884;2023-06-19T13:17:13;28.30;90.50
20041;DHT22;10181;48.072;9.884;2023-06-19T13:19:39;28.20;87.50
20041;DHT22;10181;48.072;9.884;2023-06-19T13:22:05;28.10;88.20
20041;DHT22;10181;48.072;9.884;2023-06-19T13:24:31;28.10;91.50
20041;DHT22;10181;48.072;9.884;2023-06-19T13:26:56;28.10;93.40
20041;DHT22;10181;48.072;9.884;2023-06-19T13:29:22;28.10;88.00
20041;DHT22;10181;48.072;9.884;2023-06-19T13:31:48;28.20;89.70
20041;DHT22;10181;48.072;9.884;2023-06-19T13:34:13;28.20;88.20
20041;DHT22;10181;48.072;9.884;2023-06-19T13:36:39;28.30;88.40
20041;DHT22;10181;48.072;9.884;2023-06-19T13:39:05;28.50;86.80
20041;DHT22;10181;48.072;9.884;2023-06-19T13:41:31;28.50;88.40
20041;DHT22;10181;48.072;9.884;2023-06-19T13:43:59;28.60;87.40
20041;DHT22;10181;48.072;9.884;2023-06-19T13:46:25;28.70;86.50
20041;DHT22;10181;48.072;9.884;2023-06-19T13:48:51;28.60;88.80
20041;DHT22;10181;48.072;9.884;2023-06-19T13:51:23;28.60;87.40
20041;DHT22;10181;48.072;9.884;2023-06-19T13:53:50;28.70;87.70
20041;DHT22;10181;48.072;9.884;2023-06-19T13:56:16;28.70;89.60
20041;DHT22;10181;48.072;9.884;2023-06-19T13:58:42;28.70;86.60
20041;DHT22;10181;48.072;9.884;2023-06-19T14:01:08;28.70;84.40
20041;DHT22;10181;48.072;9.884;2023-06-19T14:03:34;28.70;84.60
20041;DHT22;10181;48.072;9.884;2023-06-19T14:06:00;28.70;84.10
20041;DHT22;10181;48.072;9.884;2023-06-19T14:08:26;28.80;86.60
20041;DHT22;10181;48.072;9.884;2023-06-19T14:10:51;28.70;85.80
20041;DHT22;10181;48.072;9.884;2023-06-19T14:13:17;28.60;86.30
20041;DHT22;10181;48.072;9.884;2023-06-19T14:15:43;28.60;85.20
20041;DHT22;10181;48.072;9.884;2023-06-19T14:18:08;28.50;83.70
20041;DHT22;10181;48.072;9.884;2023-06-19T14:20:34;28.50;85.10
20041;DHT22;10181;48.072;9.884;2023-06-19T14:22:59;28.40;84.90
20041;DHT22;10181;48.072;9.884;2023-06-19T14:25:25;28.50;85.30
20041;DHT22;10181;48.072;9.884;2023-06-19T14:27:51;28.60;84.00
20041;DHT22;10181;48.072;9.884;2023-06-19T14:30:17;28.70;83.50
20041;DHT22;10181;48.072;9.884;2023-06-19T14:32:42;28.90;87.50
20041;DHT22;10181;48.072;9.884;2023-06-19T14:35:08;29.10;84.70
20041;DHT22;10181;48.072;9.884;2023-06-19T14:37:34;29.00;82.00
20041;DHT22;10181;48.072;9.884;2023-06-19T14:39:59;29.00;84.00
20041;DHT22;10181;48.072;9.884;2023-06-19T14:42:25;29.10;83.40
20041;DHT22;10181;48.072;9.884;2023-06-19T14:44:51;29.20;81.40
20041;DHT22;10181;48.072;9.884;2023-06-19T14:47:16;29.40;79.50
20041;DHT22;10181;48.072;9.884;2023-06-19T14:49:42;29.40;79.70
20041;DHT22;10181;48.072;9.884;2023-06-19T14:52:08;29.50;78.30
20041;DHT22;10181;48.072;9.884;2023-06-19T14:54:33;29.40;81.20
20041;DHT22;10181;48.072;9.884;2023-06-19T14:56:59;29.20;77.70
20041;DHT22;10181;48.072;9.884;2023-06-19T14:59:25;29.10;79.80
20041;DHT22;10181;48.072;9.884;2023-06-19T15:01:51;29.10;81.20
20041;DHT22;10181;48.072;9.884;2023-06-19T15:04:17;29.30;80.70
20041;DHT22;10181;48.072;9.884;2023-06-19T15:06:42;29.40;82.10
20041;DHT22;10181;48.072;9.884;2023-06-19T15:09:08;29.40;81.50
20041;DHT22;10181;48.072;9.884;2023-06-19T15:11:34;29.40;81.00
20041;DHT22;10181;48.072;9.884;2023-06-19T15:14:00;29.40;80.80
20041;DHT22;10181;48.072;9.884;2023-06-19T15:16:25;29.30;77.30
20041;DHT22;10181;48.072;9.884;2023-06-19T15:18:51;29.30;79.90
20041;DHT22;10181;48.072;9.884;2023-06-19T15:21:17;29.10;78.50
20041;DHT22;10181;48.072;9.884;2023-06-19T15:23:43;29.10;76.30
20041;DHT22;10181;48.072;9.884;2023-06-19T15:26:08;29.20;78.30
20041;DHT22;10181;48.072;9.884;2023-06-19T15:28:34;29.20;80.20
20041;DHT22;10181;48.072;9.884;2023-06-19T15:31:01;29.30;78.50
20041;DHT22;10181;48.072;9.884;2023-06-19T15:33:26;29.30;80.10
20041;DHT22;10181;48.072;9.884;2023-06-19T15:35:52;29.20;80.70
20041;DHT22;10181;48.072;9.884;2023-06-19T15:38:18;29.00;79.70
20041;DHT22;10181;48.072;9.884;2023-06-19T15:40:43;28.80;81.70
20041;DHT22;10181;48.072;9.884;2023-06-19T15:43:09;28.80;81.60
20041;DHT22;10181;48.072;9.884;2023-06-19T15:45:35;28.90;81.70